createdAt,value
2023-08-01T00:00:20.740Z,98835.81
2023-08-01T00:02:47.045Z,98819.81
2023-08-01T00:05:13.445Z,98813.63
2023-08-01T00:07:39.771Z,98805.81
2023-08-01T00:10:06.598Z,98806.91
2023-08-01T00:12:32.928Z,98796.41
2023-08-01T00:14:59.208Z,98786.19
2023-08-01T00:17:25.677Z,98793.25
2023-08-01T00:19:52.132Z,98772.53
2023-08-01T00:22:18.404Z,98777.88
2023-08-01T00:24:44.759Z,98777.66
2023-08-01T00:27:11.578Z,98759.84
2023-08-01T00:29:37.911Z,98761.69
2023-08-01T00:32:04.570Z,98757.31
2023-08-01T00:34:30.900Z,98755.59
2023-08-01T00:36:58.149Z,98756.31
2023-08-01T00:39:24.571Z,98739.38
2023-08-01T00:41:50.824Z,98738.75
2023-08-01T00:44:17.151Z,98731.09
2023-08-01T00:46:43.548Z,98722.06
2023-08-01T00:49:10.088Z,98713.28
2023-08-01T00:51:37.045Z,98716.94
2023-08-01T00:54:03.483Z,98709.28
2023-08-01T00:56:30.160Z,98715.22
2023-08-01T00:58:56.514Z,98710.13
2023-08-01T01:01:22.957Z,98711.13
2023-08-01T01:03:50.005Z,98714.13
2023-08-01T01:06:29.324Z,98720.22
2023-08-01T01:08:56.580Z,98714.13
2023-08-01T01:11:23.015Z,98726.22
2023-08-01T01:13:49.326Z,98717.91
2023-08-01T01:16:15.677Z,98708.28
2023-08-01T01:18:42.062Z,98687.00
2023-08-01T01:21:08.357Z,98671.25
2023-08-01T01:23:35.348Z,98668.56
2023-08-01T01:26:03.232Z,98672.13
2023-08-01T01:28:30.753Z,98656.88
2023-08-01T01:30:57.216Z,98673.09
2023-08-01T01:33:23.659Z,98672.97
2023-08-01T01:35:50.091Z,98659.69
2023-08-01T01:38:17.123Z,98665.78
2023-08-01T01:40:43.434Z,98657.09
2023-08-01T01:43:09.922Z,98654.81
2023-08-01T01:45:36.334Z,98661.41
2023-08-01T01:48:02.701Z,98658.72
2023-08-01T01:50:29.066Z,98634.34
2023-08-01T01:52:55.410Z,98637.28
2023-08-01T01:55:21.721Z,98619.34
2023-08-01T01:57:48.052Z,98594.16
2023-08-01T02:00:14.621Z,98583.78
2023-08-01T02:02:41.183Z,98606.91
2023-08-01T02:05:08.008Z,98553.81
2023-08-01T02:07:34.863Z,98576.47
2023-08-01T02:10:02.090Z,98557.81
2023-08-01T02:12:32.530Z,98556.97
2023-08-01T02:14:59.573Z,98545.63
2023-08-01T02:17:26.226Z,98564.03
2023-08-01T02:19:52.606Z,98567.09
2023-08-01T02:22:19.023Z,98548.84
2023-08-01T02:24:45.285Z,98577.56
2023-08-01T02:27:11.645Z,98562.84
2023-08-01T02:29:38.416Z,98561.59
2023-08-01T02:32:05.211Z,98567.69
2023-08-01T02:34:31.545Z,98560.03
2023-08-01T02:36:57.951Z,98559.41
2023-08-01T02:39:24.264Z,98573.91
2023-08-01T02:41:50.591Z,98561.00
2023-08-01T02:44:17.076Z,98556.38
2023-08-01T02:46:43.401Z,98539.56
2023-08-01T02:49:09.734Z,98508.84
2023-08-01T02:51:36.093Z,98498.75
2023-08-01T02:54:02.412Z,98521.03
2023-08-01T02:56:28.920Z,98517.88
2023-08-01T02:58:56.725Z,98521.88
2023-08-01T03:01:23.090Z,98501.78
2023-08-01T03:03:49.496Z,98508.47
2023-08-01T03:06:16.400Z,98506.88
2023-08-01T03:08:43.210Z,98510.91
2023-08-01T03:11:10.449Z,98507.50
2023-08-01T03:13:37.055Z,98523.19
2023-08-01T03:16:05.439Z,98520.06
2023-08-01T03:18:31.927Z,98513.69
2023-08-01T03:20:58.263Z,98520.41
2023-08-01T03:23:24.674Z,98521.38
2023-08-01T03:25:51.059Z,98526.50
2023-08-01T03:28:17.419Z,98537.06
2023-08-01T03:30:43.790Z,98537.06
2023-08-01T03:33:10.201Z,98530.25
2023-08-01T03:35:36.520Z,98532.69
2023-08-01T03:38:02.870Z,98544.38
2023-08-01T03:40:29.414Z,98531.69
2023-08-01T03:42:55.783Z,98524.16
2023-08-01T03:45:22.057Z,98530.84
2023-08-01T03:47:48.526Z,98534.66
2023-08-01T03:50:14.989Z,98512.34
2023-08-01T03:52:41.619Z,98518.69
2023-08-01T03:55:08.126Z,98504.09
2023-08-01T03:57:34.911Z,98516.13
2023-08-01T04:00:01.834Z,98526.38
2023-08-01T04:02:28.544Z,98521.88
2023-08-01T04:04:54.823Z,98506.38
2023-08-01T04:07:21.170Z,98498.34
2023-08-01T04:09:47.452Z,98505.66
2023-08-01T04:12:13.757Z,98459.91
2023-08-01T04:14:40.029Z,98483.59
2023-08-01T04:17:06.363Z,98489.13
2023-08-01T04:19:32.622Z,98496.16
2023-08-01T04:21:58.993Z,98496.06
2023-08-01T04:24:28.784Z,98491.81
2023-08-01T04:26:55.240Z,98483.03
2023-08-01T04:29:21.645Z,98495.22
2023-08-01T04:31:47.947Z,98496.06
2023-08-01T04:34:14.355Z,98482.31
2023-08-01T04:36:40.815Z,98490.81
2023-08-01T04:39:07.401Z,98496.16
2023-08-01T04:41:33.712Z,98498.00
2023-08-01T04:44:00.015Z,98500.91
2023-08-01T04:46:26.407Z,98498.25
2023-08-01T04:48:52.741Z,98487.91
2023-08-01T04:51:19.138Z,98487.28
2023-08-01T04:53:45.522Z,98493.88
2023-08-01T04:56:11.783Z,98506.88
2023-08-01T04:58:38.151Z,98515.06
2023-08-01T05:01:04.494Z,98505.19
2023-08-01T05:03:30.977Z,98527.50
2023-08-01T05:05:57.328Z,98493.16
2023-08-01T05:08:23.638Z,98478.91
2023-08-01T05:10:49.996Z,98461.94
2023-08-01T05:13:16.485Z,98422.28
2023-08-01T05:15:48.377Z,98446.97
2023-08-01T05:18:16.904Z,98433.13
2023-08-01T05:20:43.669Z,98412.78
2023-08-01T05:23:10.620Z,98396.72
2023-08-01T05:25:36.989Z,98413.31
2023-08-01T05:28:03.657Z,98425.63
2023-08-01T05:30:30.080Z,98430.00
2023-08-01T05:32:56.712Z,98431.97
2023-08-01T05:35:23.136Z,98476.06
2023-08-01T05:37:49.422Z,98486.03
2023-08-01T05:40:15.907Z,98479.31
2023-08-01T05:42:42.295Z,98448.41
2023-08-01T05:45:12.217Z,98454.50
2023-08-01T05:47:41.039Z,98469.81
2023-08-01T05:50:08.859Z,98489.91
2023-08-01T05:52:35.581Z,98460.47
2023-08-01T05:55:02.076Z,98496.50
2023-08-01T05:57:28.549Z,98491.34
2023-08-01T05:59:54.913Z,98471.16
2023-08-01T06:02:21.200Z,98472.53
2023-08-01T06:04:47.599Z,98469.00
2023-08-01T06:07:13.899Z,98463.88
2023-08-01T06:09:40.200Z,98439.31
2023-08-01T06:12:07.000Z,98438.56
2023-08-01T06:14:33.415Z,98441.38
2023-08-01T06:17:00.270Z,98469.94
2023-08-01T06:19:26.758Z,98457.41
2023-08-01T06:21:53.404Z,98464.97
2023-08-01T06:24:19.819Z,98473.84
2023-08-01T06:26:46.131Z,98465.19
2023-08-01T06:29:12.457Z,98471.16
2023-08-01T06:31:38.814Z,98477.03
2023-08-01T06:34:05.242Z,98482.16
2023-08-01T06:36:33.475Z,98454.59
2023-08-01T06:38:59.951Z,98475.41
2023-08-01T06:41:27.544Z,98484.06
2023-08-01T06:43:54.096Z,98458.72
2023-08-01T06:46:20.568Z,98486.13
2023-08-01T06:48:46.885Z,98497.81
2023-08-01T06:51:13.306Z,98487.81
2023-08-01T06:53:39.670Z,98497.59
2023-08-01T06:56:06.186Z,98482.63
2023-08-01T06:58:32.608Z,98482.22
2023-08-01T07:00:58.957Z,98513.28
2023-08-01T07:03:25.476Z,98515.97
2023-08-01T07:05:52.139Z,98485.41
2023-08-01T07:08:21.335Z,98510.34
2023-08-01T07:10:48.141Z,98502.06
2023-08-01T07:13:14.673Z,98508.88
2023-08-01T07:15:41.052Z,98535.34
2023-08-01T07:18:07.555Z,98551.25
2023-08-01T07:20:33.962Z,98545.47
2023-08-01T07:23:00.270Z,98568.56
2023-08-01T07:25:26.738Z,98576.84
2023-08-01T07:27:52.971Z,98573.44
2023-08-01T07:30:19.388Z,98557.41
2023-08-01T07:32:45.711Z,98579.66
2023-08-01T07:35:12.164Z,98561.53
2023-08-01T07:37:39.126Z,98581.59
2023-08-01T07:40:07.295Z,98571.38
2023-08-01T07:42:33.698Z,98560.19
2023-08-01T07:45:00.174Z,98572.00
2023-08-01T07:47:27.085Z,98565.28
2023-08-01T07:49:53.680Z,98585.00
2023-08-01T07:52:20.143Z,98581.38
2023-08-01T07:54:47.594Z,98590.13
2023-08-01T07:57:13.949Z,98592.69
2023-08-01T07:59:40.299Z,98574.66
2023-08-01T08:02:06.665Z,98589.78
2023-08-01T08:04:33.119Z,98588.56
2023-08-01T08:07:01.007Z,98591.69
2023-08-01T08:09:28.183Z,98586.94
2023-08-01T08:11:54.616Z,98596.03
2023-08-01T08:14:22.616Z,98587.78
2023-08-01T08:16:49.133Z,98587.16
2023-08-01T08:19:15.621Z,98588.81
2023-08-01T08:21:42.022Z,98588.88
2023-08-01T08:24:08.406Z,98590.81
2023-08-01T08:26:39.001Z,98597.31
2023-08-01T08:29:06.064Z,98582.50
2023-08-01T08:31:32.499Z,98582.59
2023-08-01T08:33:59.023Z,98589.91
2023-08-01T08:36:25.461Z,98594.91
2023-08-01T08:38:51.874Z,98577.72
2023-08-01T08:41:24.862Z,98584.50
2023-08-01T08:43:56.199Z,98582.19
2023-08-01T08:46:28.951Z,98588.59
2023-08-01T08:49:01.505Z,98584.16
2023-08-01T08:51:29.110Z,98589.03
2023-08-01T08:53:58.833Z,98579.84
2023-08-01T08:56:29.199Z,98585.31
2023-08-01T08:58:56.385Z,98576.81
2023-08-01T09:01:23.006Z,98573.97
2023-08-01T09:03:49.491Z,98588.25
2023-08-01T09:06:17.851Z,98582.38
2023-08-01T09:09:05.451Z,98589.19
2023-08-01T09:11:45.395Z,98587.56
2023-08-01T09:14:12.290Z,98575.22
2023-08-01T09:16:40.952Z,98593.38
2023-08-01T09:19:08.402Z,98579.75
2023-08-01T09:21:36.058Z,98592.66
2023-08-01T09:24:19.051Z,98606.41
2023-08-01T09:26:47.340Z,98592.00
2023-08-01T09:29:13.709Z,98603.09
2023-08-01T09:31:41.645Z,98610.72
2023-08-01T09:34:25.811Z,98611.41
2023-08-01T09:36:58.414Z,98606.41
2023-08-01T09:39:24.920Z,98604.47
2023-08-01T09:42:02.097Z,98604.94
2023-08-01T09:44:29.787Z,98592.28
2023-08-01T09:47:01.048Z,98578.47
2023-08-01T09:49:28.918Z,98585.78
2023-08-01T09:51:55.856Z,98593.53
2023-08-01T09:54:22.650Z,98592.88
2023-08-01T09:56:51.726Z,98604.31
2023-08-01T09:59:21.083Z,98603.38
2023-08-01T10:01:51.300Z,98600.97
2023-08-01T10:04:24.851Z,98604.50
2023-08-01T10:06:56.446Z,98636.41
2023-08-01T10:09:24.333Z,98628.44
2023-08-01T10:11:52.349Z,98609.16
2023-08-01T10:14:21.016Z,98624.78
2023-08-01T10:16:47.982Z,98619.84
2023-08-01T10:19:15.081Z,98622.50
2023-08-01T10:21:45.182Z,98620.31
2023-08-01T10:24:13.305Z,98610.84
2023-08-01T10:26:39.977Z,98610.00
2023-08-01T10:29:06.680Z,98615.22
2023-08-01T10:31:33.399Z,98613.34
2023-08-01T10:34:16.011Z,98622.84
2023-08-01T10:36:42.849Z,98621.16
2023-08-01T10:39:09.354Z,98601.16
2023-08-01T10:41:37.923Z,98637.44
2023-08-01T10:44:09.973Z,98643.19
2023-08-01T10:46:52.320Z,98653.72
2023-08-01T10:49:19.928Z,98648.97
2023-08-01T10:51:46.874Z,98651.47
2023-08-01T10:54:23.841Z,98623.69
2023-08-01T10:56:52.272Z,98647.97
2023-08-01T10:59:19.499Z,98643.38
2023-08-01T11:01:48.534Z,98651.00
2023-08-01T11:04:19.474Z,98647.09
2023-08-01T11:06:47.675Z,98662.72
2023-08-01T11:09:18.213Z,98653.66
2023-08-01T11:11:45.432Z,98647.56
2023-08-01T11:14:13.652Z,98635.34
2023-08-01T11:16:40.859Z,98635.94
2023-08-01T11:19:18.125Z,98639.78
2023-08-01T11:21:44.961Z,98658.97
2023-08-01T11:24:11.830Z,98642.22
2023-08-01T11:26:45.158Z,98654.41
2023-08-01T11:29:12.518Z,98652.38
2023-08-01T11:31:39.986Z,98652.03
2023-08-01T11:34:06.624Z,98665.94
2023-08-01T11:36:33.509Z,98651.28
2023-08-01T11:39:01.385Z,98660.69
2023-08-01T11:41:28.832Z,98662.50
2023-08-01T11:43:58.026Z,98660.13
2023-08-01T11:46:32.284Z,98655.09
2023-08-01T11:48:59.588Z,98669.75
2023-08-01T11:51:27.575Z,98668.59
2023-08-01T11:54:04.820Z,98653.34
2023-08-01T11:56:32.311Z,98665.88
2023-08-01T11:58:59.774Z,98668.81
2023-08-01T12:01:26.642Z,98644.91
2023-08-01T12:03:55.056Z,98649.66
2023-08-01T12:06:24.204Z,98651.00
2023-08-01T12:08:52.303Z,98659.31
2023-08-01T12:11:28.797Z,98675.84
2023-08-01T12:14:12.289Z,98662.50
2023-08-01T12:16:40.096Z,98679.84
2023-08-01T12:19:08.439Z,98665.63
2023-08-01T12:21:35.888Z,98670.78
2023-08-01T12:24:03.226Z,98681.13
2023-08-01T12:26:29.928Z,98674.75
2023-08-01T12:28:56.332Z,98672.06
2023-08-01T12:31:23.695Z,98675.81
2023-08-01T12:33:54.491Z,98665.88
2023-08-01T12:36:21.779Z,98658.03
2023-08-01T12:38:48.309Z,98672.59
2023-08-01T12:41:14.786Z,98677.81
2023-08-01T12:43:41.378Z,98678.91
2023-08-01T12:46:07.948Z,98678.78
2023-08-01T12:48:34.406Z,98684.34
2023-08-01T12:51:00.768Z,98666.63
2023-08-01T12:53:27.245Z,98694.84
2023-08-01T12:55:53.792Z,98694.06
2023-08-01T12:58:20.301Z,98708.69
2023-08-01T13:00:46.992Z,98677.78
2023-08-01T13:03:13.841Z,98685.56
2023-08-01T13:05:42.215Z,98690.94
2023-08-01T13:08:10.605Z,98687.47
2023-08-01T13:10:39.433Z,98677.00
2023-08-01T13:13:07.247Z,98694.78
2023-08-01T13:15:34.792Z,98681.47
2023-08-01T13:18:01.930Z,98686.66
2023-08-01T13:20:30.267Z,98683.94
2023-08-01T13:22:57.683Z,98686.88
2023-08-01T13:25:24.233Z,98663.38
2023-08-01T13:27:50.589Z,98706.25
2023-08-01T13:30:18.992Z,98674.16
2023-08-01T13:32:46.544Z,98688.22
2023-08-01T13:35:13.285Z,98703.50
2023-08-01T13:37:39.753Z,98709.00
2023-08-01T13:40:06.904Z,98726.41
2023-08-01T13:42:33.881Z,98723.63
2023-08-01T13:45:00.864Z,98717.47
2023-08-01T13:47:27.422Z,98709.44
2023-08-01T13:49:53.855Z,98698.13
2023-08-01T13:52:20.232Z,98689.47
2023-08-01T13:54:46.596Z,98684.22
2023-08-01T13:57:12.990Z,98706.28
2023-08-01T13:59:39.318Z,98703.56
2023-08-01T14:02:08.403Z,98716.63
2023-08-01T14:04:36.383Z,98703.25
2023-08-01T14:07:03.901Z,98715.25
2023-08-01T14:09:33.128Z,98710.66
2023-08-01T14:11:59.799Z,98701.09
2023-08-01T14:14:26.157Z,98720.06
2023-08-01T14:16:52.528Z,98728.69
2023-08-01T14:19:18.866Z,98753.94
2023-08-01T14:21:45.260Z,98769.41
2023-08-01T14:24:11.610Z,98765.13
2023-08-01T14:26:38.006Z,98796.78
2023-08-01T14:29:04.392Z,98761.78
2023-08-01T14:31:30.783Z,98792.69
2023-08-01T14:33:57.153Z,98797.31
2023-08-01T14:36:23.512Z,98808.03
2023-08-01T14:38:56.951Z,98823.47
2023-08-01T14:43:56.867Z,98826.00
2023-08-01T14:46:23.243Z,98837.31
2023-08-01T14:48:49.699Z,98838.56
2023-08-01T14:51:16.071Z,98849.66
2023-08-01T14:53:42.843Z,98850.47
2023-08-01T14:56:09.375Z,98839.16
2023-08-01T14:58:40.159Z,98831.09
2023-08-01T15:01:13.065Z,98835.75
2023-08-01T15:03:39.469Z,98855.28
2023-08-01T15:06:07.696Z,98841.31
2023-08-01T15:08:34.477Z,98849.94
2023-08-01T15:11:07.934Z,98848.38
2023-08-01T15:13:35.478Z,98834.09
2023-08-01T15:16:02.401Z,98824.81
2023-08-01T15:18:28.969Z,98854.59
2023-08-01T15:20:55.641Z,98835.25
2023-08-01T15:23:22.102Z,98840.53
2023-08-01T15:25:58.614Z,98841.44
2023-08-01T15:28:26.596Z,98819.63
2023-08-01T15:31:03.871Z,98842.44
2023-08-01T15:33:33.017Z,98836.53
2023-08-01T15:36:05.032Z,98843.47
2023-08-01T15:38:32.242Z,98825.72
2023-08-01T15:40:59.512Z,98860.28
2023-08-01T15:43:26.835Z,98913.25
2023-08-01T15:45:53.406Z,98927.72
2023-08-01T15:48:19.791Z,98924.47
2023-08-01T15:50:47.083Z,98917.84
2023-08-01T15:53:13.466Z,98915.75
2023-08-01T15:55:40.273Z,98903.19
2023-08-01T15:58:06.683Z,98896.38
2023-08-01T16:00:33.549Z,98899.59
2023-08-01T16:02:59.970Z,98892.50
2023-08-01T16:05:26.361Z,98896.19
2023-08-01T16:07:52.720Z,98880.09
2023-08-01T16:10:18.997Z,98885.69
2023-08-01T16:12:45.466Z,98872.53
2023-08-01T16:15:12.248Z,98874.28
2023-08-01T16:17:40.377Z,98885.03
2023-08-01T16:20:07.459Z,98870.34
2023-08-01T16:22:33.928Z,98875.25
2023-08-01T16:25:00.313Z,98867.63
2023-08-01T16:27:26.869Z,98865.88
2023-08-01T16:29:53.326Z,98869.72
2023-08-01T16:32:19.696Z,98868.28
2023-08-01T16:34:46.050Z,98876.59
2023-08-01T16:37:12.372Z,98884.19
2023-08-01T16:39:40.575Z,98883.69
2023-08-01T16:42:07.269Z,98886.63
2023-08-01T16:44:34.124Z,98877.94
2023-08-01T16:47:00.690Z,98886.75
2023-08-01T16:49:27.233Z,98869.97
2023-08-01T16:51:53.561Z,98877.88
2023-08-01T16:54:19.944Z,98878.34
2023-08-01T16:56:46.301Z,98891.84
2023-08-01T16:59:12.687Z,98898.41
2023-08-01T17:01:39.463Z,98903.13
2023-08-01T17:04:07.500Z,98908.72
2023-08-01T17:06:34.748Z,98909.63
2023-08-01T17:09:01.187Z,98911.84
2023-08-01T17:11:27.534Z,98896.28
2023-08-01T17:13:53.818Z,98906.25
2023-08-01T17:16:20.190Z,98917.28
2023-08-01T17:18:46.457Z,98918.78
2023-08-01T17:21:12.869Z,98916.47
2023-08-01T17:23:39.258Z,98917.84
2023-08-01T17:26:05.717Z,98915.66
2023-08-01T17:28:33.941Z,98915.56
2023-08-01T17:31:07.334Z,98923.97
2023-08-01T17:33:33.829Z,98926.94
2023-08-01T17:36:00.253Z,98923.75
2023-08-01T17:38:26.576Z,98932.53
2023-08-01T17:40:52.846Z,98928.78
2023-08-01T17:43:19.233Z,98936.00
2023-08-01T17:45:45.677Z,98932.66
2023-08-01T17:48:12.198Z,98944.53
2023-08-01T17:50:42.585Z,98901.22
2023-08-01T17:53:08.917Z,98919.59
2023-08-01T17:55:35.186Z,98921.94
2023-08-01T17:58:01.561Z,98897.06
2023-08-01T18:00:27.898Z,98931.72
2023-08-01T18:02:54.556Z,98935.91
2023-08-01T18:05:21.354Z,98940.78
2023-08-01T18:07:47.735Z,98942.00
2023-08-01T18:10:14.071Z,98950.69
2023-08-01T18:12:40.355Z,98948.84
2023-08-01T18:15:07.292Z,98959.09
2023-08-01T18:17:33.704Z,98953.09
2023-08-01T18:20:00.095Z,98957.25
2023-08-01T18:22:26.586Z,98961.66
2023-08-01T18:24:52.934Z,98960.81
2023-08-01T18:27:19.281Z,98951.41
2023-08-01T18:29:45.532Z,98959.72
2023-08-01T18:32:12.263Z,98964.56
2023-08-01T18:34:38.673Z,98968.13
2023-08-01T18:37:05.808Z,98970.66
2023-08-01T18:39:32.140Z,98972.63
2023-08-01T18:41:58.465Z,98982.41
2023-08-01T18:44:27.770Z,98977.41
2023-08-01T18:46:54.082Z,98978.97
2023-08-01T18:49:20.481Z,98983.34
2023-08-01T18:51:46.803Z,98979.31
2023-08-01T18:54:14.101Z,98969.78
2023-08-01T18:56:41.844Z,98987.72
2023-08-01T18:59:08.415Z,98996.97
2023-08-01T19:01:34.798Z,98993.81
2023-08-01T19:04:02.405Z,98995.88
2023-08-01T19:06:28.814Z,98989.34
2023-08-01T19:09:09.481Z,98997.50
2023-08-01T19:11:43.736Z,98996.63
2023-08-01T19:14:10.189Z,98985.50
2023-08-01T19:16:36.934Z,98988.78
2023-08-01T19:19:03.739Z,99005.59
2023-08-01T19:21:30.749Z,99007.44
2023-08-01T19:23:57.312Z,99003.13
2023-08-01T19:26:23.637Z,99008.50
2023-08-01T19:28:49.981Z,99018.63
2023-08-01T19:31:16.348Z,99013.31
2023-08-01T19:33:42.710Z,99021.34
2023-08-01T19:36:09.736Z,99007.75
2023-08-01T19:38:36.173Z,99025.22
2023-08-01T19:41:02.875Z,99025.97
2023-08-01T19:43:30.683Z,99028.41
2023-08-01T19:45:58.169Z,99014.28
2023-08-01T19:48:24.624Z,99025.63
2023-08-01T19:50:55.078Z,99034.41
2023-08-01T19:53:24.623Z,99030.25
2023-08-01T19:55:52.274Z,99034.28
2023-08-01T19:58:18.628Z,99033.78
2023-08-01T20:00:49.955Z,99038.78
2023-08-01T20:03:16.446Z,99041.25
2023-08-01T20:05:42.909Z,99058.09
2023-08-01T20:08:09.202Z,99052.84
2023-08-01T20:10:35.625Z,99057.22
2023-08-01T20:13:01.975Z,99061.63
2023-08-01T20:15:28.509Z,99062.56
2023-08-01T20:17:55.100Z,99066.13
2023-08-01T20:20:22.178Z,99060.59
2023-08-01T20:22:50.027Z,99066.94
2023-08-01T20:25:16.646Z,99071.41
2023-08-01T20:27:43.039Z,99064.06
2023-08-01T20:30:09.530Z,99066.75
2023-08-01T20:32:35.899Z,99068.69
2023-08-01T20:35:02.707Z,99069.00
2023-08-01T20:37:29.092Z,99059.38
2023-08-01T20:39:55.576Z,99067.53
2023-08-01T20:42:22.032Z,99059.94
2023-08-01T20:44:48.284Z,99072.34
2023-08-01T20:47:14.697Z,99071.59
2023-08-01T20:49:41.519Z,99072.69
2023-08-01T20:52:07.853Z,99054.50
2023-08-01T20:54:34.118Z,99066.69
2023-08-01T20:57:00.800Z,99072.03
2023-08-01T20:59:27.516Z,99064.13
2023-08-01T21:01:54.381Z,99059.63
2023-08-01T21:04:20.747Z,99062.28
2023-08-01T21:06:47.193Z,99061.44
2023-08-01T21:09:13.857Z,99057.91
2023-08-01T21:11:40.170Z,99051.06
2023-08-01T21:14:06.611Z,99055.84
2023-08-01T21:16:32.965Z,99045.88
2023-08-01T21:18:59.254Z,99043.94
2023-08-01T21:21:26.392Z,99045.03
2023-08-01T21:23:52.829Z,99032.72
2023-08-01T21:26:19.404Z,99042.88
2023-08-01T21:28:45.802Z,99037.75
2023-08-01T21:31:13.787Z,99039.63
2023-08-01T21:33:40.455Z,99028.91
2023-08-01T21:36:06.913Z,99032.00
2023-08-01T21:38:35.138Z,99016.25
2023-08-01T21:41:01.595Z,99041.53
2023-08-01T21:43:28.014Z,99025.53
2023-08-01T21:46:00.472Z,99025.44
2023-08-01T21:48:26.835Z,99021.28
2023-08-01T21:50:53.147Z,99031.03
2023-08-01T21:53:19.595Z,99019.69
2023-08-01T21:55:49.228Z,99034.47
2023-08-01T21:58:16.253Z,99024.41
2023-08-01T22:00:43.892Z,99025.88
2023-08-01T22:03:11.010Z,99026.88
2023-08-01T22:05:37.504Z,99015.13
2023-08-01T22:08:05.434Z,99018.28
2023-08-01T22:10:32.002Z,99032.78
2023-08-01T22:12:58.785Z,99016.41
2023-08-01T22:15:25.923Z,99013.81
2023-08-01T22:17:52.651Z,99021.03
2023-08-01T22:20:19.254Z,99028.31
2023-08-01T22:22:45.647Z,99026.63
2023-08-01T22:25:12.158Z,99041.84
2023-08-01T22:27:38.903Z,99023.53
2023-08-01T22:30:05.875Z,99026.41
2023-08-01T22:32:32.258Z,99027.91
2023-08-01T22:34:58.586Z,99037.78
2023-08-01T22:37:24.958Z,99039.81
2023-08-01T22:39:51.297Z,99035.94
2023-08-01T22:42:17.651Z,99026.22
2023-08-01T22:44:43.912Z,99027.47
2023-08-01T22:47:10.222Z,99036.00
2023-08-01T22:49:37.356Z,99043.50
2023-08-01T22:52:05.097Z,99038.16
2023-08-01T22:54:31.508Z,99037.28
2023-08-01T22:56:57.835Z,99051.00
2023-08-01T22:59:24.098Z,99045.41
2023-08-01T23:01:50.473Z,99039.81
2023-08-01T23:04:16.832Z,99042.91
2023-08-01T23:06:43.433Z,99034.63
2023-08-01T23:09:09.910Z,99039.78
2023-08-01T23:11:36.310Z,99040.28
2023-08-01T23:14:02.577Z,99037.50
2023-08-01T23:16:28.971Z,99031.28
2023-08-01T23:18:55.320Z,99023.44
2023-08-01T23:21:21.632Z,99030.41
2023-08-01T23:23:47.994Z,99029.34
2023-08-01T23:26:14.267Z,99024.81
2023-08-01T23:28:40.622Z,99021.63
2023-08-01T23:31:07.065Z,99024.81
2023-08-01T23:33:33.563Z,99012.50
2023-08-01T23:35:59.837Z,99022.16
2023-08-01T23:38:26.346Z,99014.94
2023-08-01T23:40:52.792Z,99017.53
2023-08-01T23:43:19.106Z,99021.91
2023-08-01T23:45:47.087Z,99014.75
2023-08-01T23:48:13.410Z,98997.16
2023-08-01T23:50:39.796Z,99013.75
2023-08-01T23:53:06.236Z,99012.78
2023-08-01T23:55:32.559Z,99008.50
2023-08-01T23:57:58.912Z,98983.22
